createdAt,value
2019-04-10T00:03:44.021Z,14.20
2019-04-10T00:07:50.069Z,14.20
2019-04-10T00:11:56.973Z,14.20
2019-04-10T00:16:03.687Z,14.30
2019-04-10T00:20:09.939Z,14.40
2019-04-10T00:24:15.672Z,14.40
2019-04-10T00:28:21.474Z,14.30
2019-04-10T00:32:27.897Z,14.30
2019-04-10T00:36:35.228Z,14.30
2019-04-10T00:40:41.594Z,14.20
2019-04-10T00:44:48.056Z,14.20
2019-04-10T00:48:54.521Z,14.30
2019-04-10T00:53:00.905Z,14.20
2019-04-10T00:57:07.712Z,14.20
2019-04-10T01:01:14.390Z,14.20
2019-04-10T01:05:20.144Z,14.20
2019-04-10T01:09:25.974Z,14.10
2019-04-10T01:13:32.648Z,14.10
2019-04-10T01:17:40.226Z,14.00
2019-04-10T01:21:46.460Z,13.90
2019-04-10T01:25:52.330Z,13.90
2019-04-10T01:29:58.080Z,13.90
2019-04-10T01:34:03.832Z,13.90
2019-04-10T01:38:09.525Z,13.90
2019-04-10T01:42:15.228Z,13.90
2019-04-10T01:46:22.295Z,14.00
2019-04-10T01:50:28.584Z,13.90
2019-04-10T01:54:35.271Z,14.00
2019-04-10T01:58:43.399Z,13.90
2019-04-10T02:02:51.778Z,13.80
2019-04-10T02:06:57.973Z,13.90
2019-04-10T02:11:04.842Z,13.90
2019-04-10T02:15:14.494Z,13.90
2019-04-10T02:19:19.490Z,13.80
2019-04-10T02:23:26.067Z,13.90
2019-04-10T02:27:32.167Z,13.80
2019-04-10T02:31:39.076Z,13.80
2019-04-10T02:35:45.604Z,13.80
2019-04-10T02:39:55.570Z,13.80
2019-04-10T02:44:00.003Z,13.70
2019-04-10T02:48:07.916Z,13.70
2019-04-10T02:52:14.677Z,13.70
2019-04-10T02:56:21.473Z,13.60
2019-04-10T03:00:28.279Z,13.60
2019-04-10T03:04:35.179Z,13.60
2019-04-10T03:08:58.726Z,13.60
2019-04-10T03:12:48.952Z,13.60
2019-04-10T03:16:55.490Z,13.50
2019-04-10T03:21:01.224Z,13.40
2019-04-10T03:25:08.968Z,13.50
2019-04-10T03:29:15.679Z,13.40
2019-04-10T03:33:26.530Z,13.40
2019-04-10T03:37:28.867Z,13.30
2019-04-10T03:41:34.630Z,13.30
2019-04-10T03:45:41.107Z,13.30
2019-04-10T03:49:46.890Z,13.30
2019-04-10T03:53:52.609Z,13.30
2019-04-10T03:57:58.710Z,13.30
2019-04-10T04:02:05.288Z,13.30
2019-04-10T04:06:11.953Z,13.30
2019-04-10T04:10:18.320Z,13.30
2019-04-10T04:14:24.235Z,13.20
2019-04-10T04:18:30.055Z,13.20
2019-04-10T04:22:36.899Z,13.10
2019-04-10T04:26:43.571Z,13.10
2019-04-10T04:30:51.970Z,13.10
2019-04-10T04:34:56.687Z,13.20
2019-04-10T04:39:12.727Z,13.10
2019-04-10T04:43:12.423Z,13.10
2019-04-10T04:47:18.313Z,13.10
2019-04-10T04:51:25.806Z,13.10
2019-04-10T04:55:31.401Z,13.10
2019-04-10T04:59:37.088Z,13.10
2019-04-10T05:03:42.789Z,13.10
2019-04-10T05:07:56.334Z,13.10
2019-04-10T05:11:55.939Z,13.10
2019-04-10T05:16:02.654Z,13.10
2019-04-10T05:20:09.189Z,13.10
2019-04-10T05:24:15.774Z,13.10
2019-04-10T05:28:22.198Z,13.10
2019-04-10T05:32:28.204Z,13.10
2019-04-10T05:36:33.900Z,13.10
2019-04-10T05:40:40.070Z,13.10
2019-04-10T05:44:45.846Z,13.20
2019-04-10T05:48:52.501Z,13.10
2019-04-10T05:52:58.341Z,13.20
2019-04-10T05:57:04.194Z,13.20
2019-04-10T06:01:09.953Z,13.20
2019-04-10T06:05:16.225Z,13.10
2019-04-10T06:09:22.763Z,13.20
2019-04-10T06:13:28.650Z,13.30
2019-04-10T06:17:34.404Z,13.20
2019-04-10T06:21:40.056Z,13.20
2019-04-10T06:25:45.875Z,13.20
2019-04-10T06:29:51.526Z,13.30
2019-04-10T06:33:58.312Z,13.40
2019-04-10T06:38:04.401Z,13.40
2019-04-10T06:42:10.088Z,13.40
2019-04-10T06:46:16.712Z,13.40
2019-04-10T06:50:23.173Z,13.40
2019-04-10T06:54:28.969Z,13.30
2019-04-10T06:58:34.740Z,13.30
2019-04-10T07:02:40.458Z,13.50
2019-04-10T07:06:55.941Z,13.60
2019-04-10T07:11:02.022Z,13.60
2019-04-10T07:15:02.198Z,13.60
2019-04-10T07:19:10.387Z,13.60
2019-04-10T07:23:22.473Z,13.60
2019-04-10T07:27:23.695Z,13.60
2019-04-10T07:31:32.428Z,13.70
2019-04-10T07:35:38.360Z,13.60
2019-04-10T07:39:44.777Z,13.60
2019-04-10T07:43:54.331Z,13.50
2019-04-10T07:47:58.203Z,13.40
2019-04-10T07:52:04.837Z,13.50
2019-04-10T07:56:15.080Z,13.50
2019-04-10T08:00:18.238Z,13.60
2019-04-10T08:04:23.951Z,13.60
2019-04-10T08:08:30.001Z,13.60
2019-04-10T08:12:44.620Z,13.60
2019-04-10T08:16:44.239Z,13.60
2019-04-10T08:20:50.865Z,13.50
2019-04-10T08:24:56.607Z,13.50
2019-04-10T08:29:02.516Z,13.50
2019-04-10T08:33:08.271Z,13.50
2019-04-10T08:37:14.500Z,13.60
2019-04-10T08:41:21.380Z,13.60
2019-04-10T08:45:38.523Z,13.70
2019-04-10T08:49:34.502Z,13.80
2019-04-10T08:53:40.340Z,13.90
2019-04-10T08:57:46.056Z,14.00
2019-04-10T09:01:51.744Z,14.10
2019-04-10T09:05:58.657Z,14.10
2019-04-10T09:10:06.420Z,14.20
2019-04-10T09:14:12.839Z,14.20
2019-04-10T09:18:18.576Z,14.30
2019-04-10T09:22:25.394Z,14.30
2019-04-10T09:26:31.112Z,14.30
2019-04-10T09:30:37.274Z,14.40
2019-04-10T09:34:45.542Z,14.60
2019-04-10T09:38:50.764Z,14.80
2019-04-10T09:42:57.658Z,14.80
2019-04-10T09:47:03.567Z,14.90
2019-04-10T09:51:11.661Z,15.00
2019-04-10T09:55:18.000Z,14.90
2019-04-10T09:59:34.887Z,15.00
2019-04-10T10:03:32.422Z,15.10
2019-04-10T10:07:39.049Z,15.00
2019-04-10T10:11:44.907Z,15.10
2019-04-10T10:15:51.513Z,15.60
2019-04-10T10:19:57.485Z,15.90
2019-04-10T10:24:04.489Z,16.10
2019-04-10T10:28:11.738Z,16.10
2019-04-10T10:32:17.594Z,16.10
2019-04-10T10:36:34.688Z,16.00
2019-04-10T10:40:31.843Z,16.00
2019-04-10T10:44:38.368Z,15.80
2019-04-10T10:48:44.199Z,15.70
2019-04-10T10:52:50.128Z,15.80
2019-04-10T10:56:56.918Z,15.80
2019-04-10T11:01:03.337Z,15.80
2019-04-10T11:05:10.703Z,15.80
2019-04-10T11:09:18.172Z,15.70
2019-04-10T11:13:24.236Z,15.80
2019-04-10T11:17:30.705Z,15.90
2019-04-10T11:21:36.657Z,16.00
2019-04-10T11:25:42.542Z,16.20
2019-04-10T11:29:48.242Z,16.30
2019-04-10T11:33:56.338Z,16.20
2019-04-10T11:38:02.935Z,16.10
2019-04-10T11:46:16.932Z,16.40
2019-04-10T11:50:25.404Z,16.30
2019-04-10T11:54:32.250Z,16.20
2019-04-10T11:58:48.657Z,16.00
2019-04-10T12:02:47.390Z,16.10
2019-04-10T12:06:55.438Z,16.40
2019-04-10T12:15:08.597Z,16.40
2019-04-10T12:19:15.219Z,16.50
2019-04-10T12:23:21.012Z,16.60
2019-04-10T12:27:27.353Z,16.60
2019-04-10T12:31:34.496Z,16.60
2019-04-10T12:35:40.404Z,16.60
2019-04-10T12:39:46.113Z,16.60
2019-04-10T12:43:52.045Z,16.70
2019-04-10T12:47:58.547Z,16.90
2019-04-10T12:52:04.352Z,17.10
2019-04-10T12:56:10.237Z,17.10
2019-04-10T13:00:20.030Z,16.90
2019-04-10T13:04:25.835Z,16.80
2019-04-10T13:08:50.020Z,16.70
2019-04-10T13:12:39.728Z,16.70
2019-04-10T13:16:45.464Z,16.70
2019-04-10T13:20:51.150Z,16.70
2019-04-10T13:24:57.714Z,16.60
2019-04-10T13:29:03.697Z,16.40
2019-04-10T13:33:09.497Z,16.40
2019-04-10T13:37:15.807Z,16.50
2019-04-10T13:41:21.602Z,16.70
2019-04-10T13:45:27.481Z,16.80
2019-04-10T13:49:33.756Z,16.90
2019-04-10T13:53:39.859Z,17.00
2019-04-10T13:57:46.612Z,17.00
2019-04-10T14:01:52.482Z,16.90
2019-04-10T14:05:58.198Z,16.90
2019-04-10T14:10:07.623Z,17.00
2019-04-10T14:14:13.302Z,16.90
2019-04-10T14:18:19.207Z,16.80
2019-04-10T14:22:26.053Z,16.70
2019-04-10T14:26:45.844Z,16.70
2019-04-10T14:30:43.524Z,16.70
2019-04-10T14:34:50.425Z,16.80
2019-04-10T14:39:08.626Z,16.90
2019-04-10T14:43:03.793Z,16.90
2019-04-10T14:47:10.642Z,16.90
2019-04-10T14:51:17.582Z,16.90
2019-04-10T14:55:29.168Z,16.80
2019-04-10T14:59:35.914Z,16.70
2019-04-10T15:03:42.645Z,16.70
2019-04-10T15:07:48.399Z,16.70
2019-04-10T15:11:55.193Z,16.50
2019-04-10T15:16:01.069Z,16.50
2019-04-10T15:20:08.967Z,16.60
2019-04-10T15:24:15.320Z,16.70
2019-04-10T15:28:21.163Z,16.70
2019-04-10T15:32:26.878Z,16.90
2019-04-10T15:36:32.580Z,16.90
2019-04-10T15:40:38.579Z,16.90
2019-04-10T15:44:44.399Z,17.00
2019-04-10T15:48:50.763Z,17.10
2019-04-10T15:52:57.973Z,17.00
2019-04-10T15:57:04.694Z,16.90
2019-04-10T16:01:12.228Z,16.80
2019-04-10T16:05:18.100Z,16.70
2019-04-10T16:09:25.327Z,16.60
2019-04-10T16:13:38.898Z,16.60
2019-04-10T16:17:48.217Z,16.60
2019-04-10T16:21:56.412Z,16.50
2019-04-10T16:26:02.918Z,16.40
2019-04-10T16:30:12.209Z,16.40
2019-04-10T16:34:18.019Z,16.40
2019-04-10T16:38:24.727Z,16.40
2019-04-10T16:42:30.766Z,16.30
2019-04-10T16:46:36.690Z,16.30
2019-04-10T16:50:43.394Z,16.20
2019-04-10T16:54:49.371Z,16.10
2019-04-10T16:58:56.259Z,16.00
2019-04-10T17:03:02.029Z,16.00
2019-04-10T17:07:08.600Z,16.00
2019-04-10T17:11:14.653Z,15.80
2019-04-10T17:15:20.456Z,15.80
2019-04-10T17:19:26.279Z,15.90
2019-04-10T17:23:32.284Z,15.90
2019-04-10T17:27:38.051Z,15.80
2019-04-10T17:36:10.192Z,15.70
2019-04-10T17:40:27.443Z,15.60
2019-04-10T17:44:24.018Z,15.50
2019-04-10T17:48:30.692Z,15.40
2019-04-10T17:52:38.640Z,15.40
2019-04-10T17:56:44.473Z,15.40
2019-04-10T18:00:52.147Z,15.30
2019-04-10T18:04:58.160Z,15.40
2019-04-10T18:09:05.878Z,15.30
2019-04-10T18:13:11.769Z,15.20
2019-04-10T18:17:18.483Z,15.30
2019-04-10T18:21:24.593Z,15.30
2019-04-10T18:25:30.320Z,15.30
2019-04-10T18:29:36.090Z,15.20
2019-04-10T18:33:42.759Z,15.20
2019-04-10T18:37:49.095Z,15.10
2019-04-10T18:41:55.870Z,15.10
2019-04-10T18:46:10.743Z,15.10
2019-04-10T18:50:12.047Z,15.10
2019-04-10T18:54:18.609Z,15.00
2019-04-10T18:58:26.169Z,15.00
2019-04-10T19:02:32.744Z,14.90
2019-04-10T19:06:58.889Z,14.90
2019-04-10T19:11:16.971Z,15.00
2019-04-10T19:15:12.814Z,14.90
2019-04-10T19:19:18.606Z,14.90
2019-04-10T19:23:25.460Z,14.90
2019-04-10T19:27:32.335Z,14.90
2019-04-10T19:31:40.267Z,14.90
2019-04-10T19:35:46.098Z,14.80
2019-04-10T19:39:51.891Z,14.90
2019-04-10T19:43:58.870Z,15.00
2019-04-10T19:48:06.691Z,15.00
2019-04-10T19:52:51.588Z,15.00
2019-04-10T19:56:57.417Z,14.90
2019-04-10T20:01:05.172Z,15.00
2019-04-10T20:05:11.179Z,14.90
2019-04-10T20:09:18.027Z,15.00
2019-04-10T20:13:24.864Z,15.00
2019-04-10T20:17:54.625Z,14.90
2019-04-10T20:22:00.689Z,14.90
2019-04-10T20:26:07.134Z,14.80
2019-04-10T20:30:15.232Z,14.80
2019-04-10T20:34:21.280Z,14.80
2019-04-10T20:38:51.211Z,14.80
2019-04-10T20:42:56.977Z,14.90
2019-04-10T20:47:02.701Z,14.80
2019-04-10T20:51:08.516Z,14.80
2019-04-10T20:55:14.357Z,14.70
2019-04-10T20:59:20.065Z,14.70
2019-04-10T21:03:25.766Z,14.70
2019-04-10T21:07:31.888Z,14.70
2019-04-10T21:12:02.046Z,14.60
2019-04-10T21:16:00.725Z,14.50
2019-04-10T21:20:09.707Z,14.40
2019-04-10T21:24:16.563Z,14.40
2019-04-10T21:28:22.616Z,14.30
2019-04-10T21:32:35.884Z,14.40
2019-04-10T21:36:51.190Z,14.30
2019-04-10T21:40:57.349Z,14.30
2019-04-10T21:45:03.249Z,14.30
2019-04-10T21:49:09.054Z,14.20
2019-04-10T21:53:14.793Z,14.10
2019-04-10T21:57:20.612Z,14.10
2019-04-10T22:01:26.879Z,14.00
2019-04-10T22:05:51.016Z,13.90
2019-04-10T22:10:13.372Z,14.00
2019-04-10T22:14:21.481Z,14.00
2019-04-10T22:18:51.995Z,13.90
2019-04-10T22:22:57.724Z,13.80
2019-04-10T22:27:03.506Z,13.70
2019-04-10T22:31:09.628Z,13.50
2019-04-10T22:35:15.455Z,13.60
2019-04-10T22:39:21.159Z,13.50
2019-04-10T22:43:28.085Z,13.40
2019-04-10T22:47:35.889Z,13.50
2019-04-10T22:51:41.862Z,13.40
2019-04-10T22:55:48.533Z,13.30
2019-04-10T22:59:55.304Z,13.40
2019-04-10T23:04:01.747Z,13.20
2019-04-10T23:08:09.445Z,13.20
2019-04-10T23:12:16.195Z,13.10
2019-04-10T23:16:22.225Z,13.10
2019-04-10T23:20:27.960Z,13.10
2019-04-10T23:24:33.842Z,13.10
2019-04-10T23:28:39.851Z,13.30
2019-04-10T23:32:45.965Z,13.20
2019-04-10T23:36:51.667Z,13.20
2019-04-10T23:40:57.397Z,13.10
2019-04-10T23:45:03.363Z,13.00
2019-04-10T23:49:09.061Z,13.10
2019-04-10T23:53:14.752Z,13.10
2019-04-10T23:57:21.179Z,13.20
